Terminal Aerodrome Forecast
Issued by NWS

Home | Current Version | Previous Version | Text Only | Print | Product List | Glossary On
Versions: 1 2 3 4 5 6 7 8 9 10 11 12 13 14
299
FTUS43 KMQT 231120
TAFIWD
TAF
KIWD 231120Z 2312/2412 17010KT P6SM OVC040
     FM231700 18013G20KT P6SM VCSH OVC060
     FM240100 18008KT P6SM -RA OVC030
     FM240300 18006KT 4SM -RA OVC015
     FM240500 18005KT P6SM -RA OVC008
     FM240600 19004KT P6SM -RA OVC003=

USA.gov is the U.S. government's official web portal to all federal, state and local government web resources and services.